createdAt,value
2022-12-16T00:01:16.516Z,21.50
2022-12-16T00:03:47.766Z,21.83
2022-12-16T00:06:14.926Z,22.48
2022-12-16T00:08:42.136Z,21.35
2022-12-16T00:11:09.183Z,20.95
2022-12-16T00:13:37.478Z,22.27
2022-12-16T00:16:06.033Z,22.83
2022-12-16T00:18:33.222Z,20.10
2022-12-16T00:21:00.416Z,22.65
2022-12-16T00:23:27.806Z,22.25
2022-12-16T00:25:54.910Z,22.90
2022-12-16T00:28:23.120Z,22.80
2022-12-16T00:30:51.221Z,22.40
2022-12-16T00:33:20.057Z,22.00
2022-12-16T00:35:47.553Z,21.33
2022-12-16T00:38:15.141Z,24.27
2022-12-16T00:40:42.436Z,21.08
2022-12-16T00:43:09.601Z,21.80
2022-12-16T00:45:36.766Z,22.30
2022-12-16T00:48:03.986Z,24.27
2022-12-16T00:50:31.242Z,24.03
2022-12-16T00:52:58.427Z,23.40
2022-12-16T00:55:25.505Z,21.38
2022-12-16T00:57:52.662Z,24.67
2022-12-16T01:00:22.437Z,20.52
2022-12-16T01:02:49.714Z,21.20
2022-12-16T01:05:19.869Z,22.75
2022-12-16T01:07:47.772Z,22.70
2022-12-16T01:10:14.750Z,21.45
2022-12-16T01:12:41.894Z,20.88
2022-12-16T01:15:09.991Z,19.48
2022-12-16T01:17:37.134Z,19.67
2022-12-16T01:20:04.547Z,21.10
2022-12-16T01:22:33.090Z,23.05
2022-12-16T01:25:00.699Z,21.63
2022-12-16T01:27:28.753Z,20.15
2022-12-16T01:29:56.136Z,23.45
2022-12-16T01:32:23.298Z,21.42
2022-12-16T01:34:54.853Z,21.65
2022-12-16T01:37:23.678Z,21.58
2022-12-16T01:39:50.910Z,19.65
2022-12-16T01:42:19.951Z,18.52
2022-12-16T01:44:48.980Z,19.90
2022-12-16T01:47:17.779Z,18.67
2022-12-16T01:49:47.171Z,19.88
2022-12-16T01:52:18.430Z,17.13
2022-12-16T01:54:47.928Z,21.38
2022-12-16T01:57:18.419Z,20.58
2022-12-16T01:59:47.723Z,19.25
2022-12-16T02:02:15.067Z,18.53
2022-12-16T02:05:02.082Z,19.83
2022-12-16T02:07:29.171Z,19.45
2022-12-16T02:09:56.771Z,21.02
2022-12-16T02:12:30.179Z,20.33
2022-12-16T02:15:08.308Z,20.08
2022-12-16T02:17:42.866Z,20.02
2022-12-16T02:20:21.791Z,20.43
2022-12-16T02:23:09.573Z,18.33
2022-12-16T02:25:56.552Z,19.88
2022-12-16T02:28:43.599Z,21.10
2022-12-16T02:31:18.193Z,21.80
2022-12-16T02:33:52.171Z,20.20
2022-12-16T02:36:25.706Z,20.55
2022-12-16T02:38:56.517Z,19.40
2022-12-16T02:41:27.122Z,20.10
2022-12-16T02:43:56.019Z,18.98
2022-12-16T02:46:26.312Z,19.70
2022-12-16T02:48:53.775Z,18.00
2022-12-16T02:51:21.527Z,18.60
2022-12-16T02:53:49.575Z,19.60
2022-12-16T02:56:23.991Z,18.33
2022-12-16T02:59:11.187Z,20.10
2022-12-16T03:01:48.936Z,19.27
2022-12-16T03:04:21.453Z,18.65
2022-12-16T03:06:50.660Z,17.15
2022-12-16T03:09:21.707Z,20.05
2022-12-16T03:11:50.043Z,17.38
2022-12-16T03:14:17.876Z,17.15
2022-12-16T03:16:45.954Z,17.92
2022-12-16T03:19:13.476Z,18.13
2022-12-16T03:22:00.788Z,19.88
2022-12-16T03:24:28.410Z,19.75
2022-12-16T03:26:59.714Z,18.63
2022-12-16T03:29:35.155Z,17.92
2022-12-16T03:32:04.625Z,17.50
2022-12-16T03:34:31.734Z,18.17
2022-12-16T03:37:01.742Z,18.90
2022-12-16T03:39:29.658Z,18.00
2022-12-16T03:41:57.043Z,18.33
2022-12-16T03:44:25.300Z,19.58
2022-12-16T03:46:52.671Z,17.15
2022-12-16T03:49:19.906Z,17.85
2022-12-16T03:51:46.966Z,17.43
2022-12-16T03:54:14.067Z,18.00
2022-12-16T03:56:41.287Z,17.55
2022-12-16T03:59:08.239Z,19.42
2022-12-16T04:01:35.588Z,18.42
2022-12-16T04:04:02.927Z,17.33
2022-12-16T04:06:30.079Z,17.52
2022-12-16T04:08:57.252Z,17.87
2022-12-16T04:11:44.235Z,16.35
2022-12-16T04:14:43.307Z,15.40
2022-12-16T04:17:32.390Z,16.90
2022-12-16T04:20:19.343Z,16.77
2022-12-16T04:23:06.359Z,17.13
2022-12-16T04:25:35.674Z,16.83
2022-12-16T04:28:03.191Z,16.05
2022-12-16T04:30:34.512Z,17.77
2022-12-16T04:33:23.369Z,15.77
2022-12-16T04:36:10.334Z,16.00
2022-12-16T04:38:57.336Z,16.05
2022-12-16T04:41:44.290Z,17.17
2022-12-16T04:44:31.381Z,17.40
2022-12-16T04:47:18.411Z,15.15
2022-12-16T04:50:05.435Z,16.02
2022-12-16T04:52:52.537Z,15.90
2022-12-16T04:55:39.605Z,16.52
2022-12-16T04:58:26.629Z,16.23
2022-12-16T05:01:13.739Z,15.98
2022-12-16T05:04:00.762Z,13.27
2022-12-16T05:06:47.778Z,14.90
2022-12-16T05:09:34.838Z,13.70
2022-12-16T05:12:21.833Z,14.68
2022-12-16T05:15:08.810Z,16.15
2022-12-16T05:17:55.790Z,14.73
2022-12-16T05:20:42.741Z,13.88
2022-12-16T05:23:30.146Z,12.90
2022-12-16T05:26:17.370Z,13.13
2022-12-16T05:29:04.358Z,15.02
2022-12-16T05:31:51.741Z,14.02
2022-12-16T05:34:38.693Z,13.32
2022-12-16T05:37:25.702Z,12.52
2022-12-16T05:40:12.704Z,13.90
2022-12-16T05:42:59.669Z,12.25
2022-12-16T05:45:46.648Z,13.88
2022-12-16T05:48:33.886Z,12.27
2022-12-16T05:51:20.886Z,11.45
2022-12-16T05:54:07.962Z,11.68
2022-12-16T05:56:54.954Z,11.68
2022-12-16T05:59:41.970Z,11.88
2022-12-16T06:02:29.237Z,12.65
2022-12-16T06:05:16.281Z,10.75
2022-12-16T06:08:03.253Z,11.75
2022-12-16T06:10:50.255Z,11.45
2022-12-16T06:13:37.246Z,11.57
2022-12-16T06:16:24.376Z,12.02
2022-12-16T06:19:11.383Z,12.20
2022-12-16T06:21:58.385Z,11.27
2022-12-16T06:24:45.370Z,12.05
2022-12-16T06:27:32.325Z,12.32
2022-12-16T06:30:19.328Z,12.40
2022-12-16T06:33:06.298Z,11.32
2022-12-16T06:35:53.306Z,11.65
2022-12-16T06:38:40.269Z,10.27
2022-12-16T06:41:27.252Z,12.03
2022-12-16T06:44:14.205Z,10.85
2022-12-16T06:47:01.201Z,11.15
2022-12-16T06:49:48.148Z,11.93
2022-12-16T06:52:35.140Z,11.93
2022-12-16T06:55:22.105Z,11.65
2022-12-16T06:58:10.155Z,11.90
2022-12-16T07:00:57.239Z,12.30
2022-12-16T07:03:44.209Z,12.75
2022-12-16T07:06:31.181Z,11.82
2022-12-16T07:09:18.205Z,12.13
2022-12-16T07:12:05.165Z,11.63
2022-12-16T07:14:52.153Z,12.02
2022-12-16T07:17:39.105Z,12.52
2022-12-16T07:20:26.186Z,12.07
2022-12-16T07:23:19.267Z,13.90
2022-12-16T07:26:06.723Z,12.38
2022-12-16T07:28:53.759Z,12.50
2022-12-16T07:31:40.829Z,12.95
2022-12-16T07:34:27.891Z,13.25
2022-12-16T07:37:14.921Z,10.70
2022-12-16T07:40:01.885Z,13.43
2022-12-16T07:42:48.852Z,11.07
2022-12-16T07:45:39.168Z,11.77
2022-12-16T07:48:30.345Z,9.55
2022-12-16T07:51:17.545Z,11.30
2022-12-16T07:54:04.508Z,10.40
2022-12-16T07:56:51.503Z,10.13
2022-12-16T07:59:38.513Z,11.18
2022-12-16T08:02:25.687Z,12.40
2022-12-16T08:05:12.907Z,10.10
2022-12-16T08:08:00.626Z,9.60
2022-12-16T08:10:47.842Z,9.60
2022-12-16T08:13:35.223Z,11.60
2022-12-16T08:16:22.626Z,13.25
2022-12-16T08:19:11.401Z,11.05
2022-12-16T08:21:58.637Z,11.25
2022-12-16T08:24:51.345Z,12.23
2022-12-16T08:27:40.464Z,11.27
2022-12-16T08:30:27.745Z,12.00
2022-12-16T08:33:19.255Z,10.57
2022-12-16T08:36:07.330Z,11.82
2022-12-16T08:38:54.662Z,12.23
2022-12-16T08:41:42.898Z,13.38
2022-12-16T08:44:29.874Z,12.20
2022-12-16T08:47:16.882Z,12.98
2022-12-16T08:50:03.881Z,11.73
2022-12-16T08:52:51.008Z,11.68
2022-12-16T08:55:38.005Z,11.10
2022-12-16T08:58:24.937Z,11.50
2022-12-16T09:01:11.963Z,12.37
2022-12-16T09:03:59.013Z,15.53
2022-12-16T09:06:46.117Z,13.23
2022-12-16T09:09:33.111Z,12.30
2022-12-16T09:12:20.052Z,12.87
2022-12-16T09:15:07.017Z,12.88
2022-12-16T09:17:54.044Z,12.90
2022-12-16T09:20:41.026Z,11.55
2022-12-16T09:23:28.506Z,12.43
2022-12-16T09:26:15.635Z,14.07
2022-12-16T09:29:02.714Z,11.15
2022-12-16T09:31:49.661Z,11.65
2022-12-16T09:34:36.649Z,12.13
2022-12-16T09:37:23.613Z,11.23
2022-12-16T09:40:10.598Z,10.77
2022-12-16T09:42:57.545Z,11.45
2022-12-16T09:45:56.046Z,12.57
2022-12-16T09:49:13.667Z,12.90
2022-12-16T09:52:02.085Z,12.15
2022-12-16T09:54:50.414Z,12.82
2022-12-16T09:57:39.112Z,13.47
2022-12-16T10:00:27.699Z,12.23
2022-12-16T10:03:16.053Z,11.77
2022-12-16T10:06:23.082Z,12.05
2022-12-16T10:09:15.711Z,11.98
2022-12-16T10:12:02.670Z,12.63
2022-12-16T10:14:56.629Z,13.63
2022-12-16T10:17:45.360Z,12.00
2022-12-16T10:20:32.319Z,11.98
2022-12-16T10:23:20.328Z,12.20
2022-12-16T10:26:11.690Z,12.18
2022-12-16T10:29:06.955Z,11.73
2022-12-16T10:31:54.663Z,13.82
2022-12-16T10:34:47.963Z,12.40
2022-12-16T10:37:50.530Z,21.95
2022-12-16T10:40:39.403Z,14.20
2022-12-16T10:43:31.794Z,12.20
2022-12-16T10:46:19.719Z,12.13
2022-12-16T10:49:06.398Z,12.30
2022-12-16T10:51:53.418Z,14.55
2022-12-16T10:54:40.383Z,13.27
2022-12-16T10:57:33.786Z,15.25
2022-12-16T11:00:40.674Z,13.13
2022-12-16T11:03:38.280Z,15.20
2022-12-16T11:06:26.105Z,14.70
2022-12-16T11:09:13.134Z,16.13
2022-12-16T11:12:00.117Z,13.68
2022-12-16T11:15:12.395Z,14.35
2022-12-16T11:17:56.570Z,13.43
2022-12-16T11:20:43.430Z,15.20
2022-12-16T11:23:34.521Z,15.63
2022-12-16T11:26:24.294Z,14.45
2022-12-16T11:29:22.885Z,14.00
2022-12-16T11:32:11.980Z,14.93
2022-12-16T11:34:59.289Z,15.70
2022-12-16T11:37:48.446Z,13.90
2022-12-16T11:40:36.168Z,15.52
2022-12-16T11:43:24.271Z,16.27
2022-12-16T11:46:12.671Z,16.88
2022-12-16T11:49:24.969Z,14.95
2022-12-16T11:58:57.467Z,15.57
2022-12-16T12:01:49.191Z,16.73
2022-12-16T12:04:36.364Z,16.65
2022-12-16T12:07:31.903Z,18.77
2022-12-16T12:10:26.897Z,17.25
2022-12-16T12:13:18.061Z,14.35
2022-12-16T12:16:10.642Z,16.38
2022-12-16T12:19:17.537Z,17.50
2022-12-16T12:22:12.388Z,18.42
2022-12-16T12:25:06.668Z,21.23
2022-12-16T12:27:58.688Z,16.70
2022-12-16T12:30:45.781Z,15.23
2022-12-16T12:33:33.256Z,17.05
2022-12-16T12:36:21.387Z,16.40
2022-12-16T12:39:11.618Z,16.13
2022-12-16T12:42:08.521Z,17.15
2022-12-16T12:45:03.456Z,16.67
2022-12-16T12:47:50.778Z,17.20
2022-12-16T12:50:42.353Z,15.60
2022-12-16T12:53:36.230Z,17.75
2022-12-16T12:56:43.380Z,16.17
2022-12-16T12:59:50.250Z,17.63
2022-12-16T13:02:41.791Z,17.70
2022-12-16T13:05:33.263Z,16.73
2022-12-16T13:08:40.136Z,18.60
2022-12-16T13:11:35.424Z,22.30
2022-12-16T13:14:23.002Z,18.38
2022-12-16T13:17:23.668Z,19.77
2022-12-16T13:20:16.515Z,20.85
2022-12-16T13:23:04.507Z,18.63
2022-12-16T13:25:53.551Z,18.13
2022-12-16T13:28:47.362Z,19.95
2022-12-16T13:31:34.688Z,18.17
2022-12-16T13:34:24.482Z,18.25
2022-12-16T13:37:22.877Z,18.13
2022-12-16T13:40:32.897Z,20.92
2022-12-16T13:43:23.678Z,18.23
2022-12-16T13:46:18.441Z,18.75
2022-12-16T13:49:05.547Z,19.67
2022-12-16T13:51:55.751Z,18.05
2022-12-16T13:55:02.648Z,18.60
2022-12-16T13:57:50.903Z,16.08
2022-12-16T14:00:40.128Z,17.20
2022-12-16T14:03:32.748Z,18.17
2022-12-16T14:06:20.687Z,17.25
2022-12-16T14:09:09.115Z,17.80
2022-12-16T14:12:10.395Z,16.88
2022-12-16T14:15:02.477Z,16.10
2022-12-16T14:18:09.343Z,16.60
2022-12-16T14:20:59.444Z,17.17
2022-12-16T14:24:06.967Z,16.98
2022-12-16T14:26:56.326Z,16.60
2022-12-16T14:29:47.506Z,17.30
2022-12-16T14:32:47.090Z,18.83
2022-12-16T14:35:36.046Z,19.40
2022-12-16T14:38:42.914Z,19.33
2022-12-16T14:41:31.836Z,17.70
2022-12-16T14:44:18.862Z,17.50
2022-12-16T14:47:10.167Z,18.33
2022-12-16T14:50:08.037Z,18.48
2022-12-16T14:52:41.062Z,17.58
2022-12-16T14:55:32.470Z,22.67
2022-12-16T14:58:31.815Z,19.55
2022-12-16T15:01:21.250Z,17.92
2022-12-16T15:04:09.664Z,18.55
2022-12-16T15:06:56.828Z,20.92
2022-12-16T15:09:47.329Z,18.75
2022-12-16T15:12:36.062Z,16.20
2022-12-16T15:15:25.322Z,17.85
2022-12-16T15:18:15.266Z,20.13
2022-12-16T15:21:11.627Z,18.17
2022-12-16T15:24:00.805Z,19.00
2022-12-16T15:26:50.013Z,22.48
2022-12-16T15:29:47.497Z,17.73
2022-12-16T15:32:54.367Z,19.33
2022-12-16T15:35:48.838Z,18.55
2022-12-16T15:38:35.790Z,18.13
2022-12-16T15:41:23.617Z,20.40
2022-12-16T15:44:11.029Z,20.37
2022-12-16T15:46:58.105Z,17.80
2022-12-16T15:49:46.072Z,17.52
2022-12-16T15:52:52.976Z,17.98
2022-12-16T15:56:04.959Z,23.23
2022-12-16T15:58:53.368Z,19.08
2022-12-16T16:01:48.479Z,18.23
2022-12-16T16:04:40.038Z,21.15
2022-12-16T16:07:34.168Z,20.27
2022-12-16T16:10:37.781Z,20.00
2022-12-16T16:13:24.870Z,17.37
2022-12-16T16:16:12.617Z,23.87
2022-12-16T16:19:00.731Z,19.98
2022-12-16T16:21:48.348Z,20.05
2022-12-16T16:24:35.380Z,18.48
2022-12-16T16:27:23.205Z,18.73
2022-12-16T16:30:10.201Z,18.67
2022-12-16T16:32:57.191Z,18.20
2022-12-16T16:35:44.307Z,18.42
2022-12-16T16:38:32.013Z,17.50
2022-12-16T16:41:19.013Z,19.13
2022-12-16T16:44:06.005Z,19.70
2022-12-16T16:46:55.452Z,18.10
2022-12-16T16:49:42.471Z,18.88
2022-12-16T16:52:31.345Z,20.38
2022-12-16T16:55:18.368Z,19.08
2022-12-16T16:58:05.377Z,21.23
2022-12-16T17:00:52.435Z,20.92
2022-12-16T17:03:40.295Z,20.55
2022-12-16T17:06:27.778Z,21.20
2022-12-16T17:09:14.763Z,21.23
2022-12-16T17:12:01.836Z,20.15
2022-12-16T17:14:48.867Z,21.27
2022-12-16T17:17:35.848Z,20.50
2022-12-16T17:20:22.862Z,18.95
2022-12-16T17:23:09.808Z,19.90
2022-12-16T17:25:56.856Z,22.05
2022-12-16T17:28:43.901Z,22.05
2022-12-16T17:31:31.342Z,19.75
2022-12-16T17:34:19.641Z,18.80
2022-12-16T17:37:06.668Z,19.80
2022-12-16T17:39:53.689Z,18.88
2022-12-16T17:42:46.321Z,20.88
2022-12-16T17:45:33.709Z,20.48
2022-12-16T17:48:20.664Z,19.25
2022-12-16T17:51:07.643Z,18.98
2022-12-16T17:54:00.302Z,19.17
2022-12-16T17:56:50.532Z,19.90
2022-12-16T17:59:37.543Z,20.53
2022-12-16T18:02:24.668Z,19.53
2022-12-16T18:05:11.718Z,21.05
2022-12-16T18:07:58.800Z,20.20
2022-12-16T18:10:45.774Z,20.55
2022-12-16T18:13:32.681Z,22.52
2022-12-16T18:16:19.942Z,20.45
2022-12-16T18:19:09.932Z,20.08
2022-12-16T18:21:56.964Z,19.30
2022-12-16T18:24:48.157Z,18.38
2022-12-16T18:27:35.218Z,20.40
2022-12-16T18:30:22.228Z,21.13
2022-12-16T18:33:08.769Z,22.35
2022-12-16T18:35:55.755Z,20.90
2022-12-16T18:38:42.730Z,27.02
2022-12-16T18:41:35.206Z,21.50
2022-12-16T18:44:22.654Z,24.33
2022-12-16T18:47:09.712Z,25.58
2022-12-16T18:49:56.754Z,22.20
2022-12-16T18:52:43.819Z,22.10
2022-12-16T18:55:34.466Z,23.27
2022-12-16T18:58:49.726Z,25.38
2022-12-16T19:01:30.129Z,29.52
2022-12-16T19:04:17.698Z,24.10
2022-12-16T19:07:04.664Z,26.38
2022-12-16T19:09:51.693Z,24.65
2022-12-16T19:12:38.645Z,23.35
2022-12-16T19:15:25.805Z,25.58
2022-12-16T19:18:13.276Z,25.40
2022-12-16T19:20:59.936Z,24.25
2022-12-16T19:23:46.908Z,23.85
2022-12-16T19:26:33.892Z,23.67
2022-12-16T19:29:20.856Z,23.77
2022-12-16T19:32:08.021Z,24.60
2022-12-16T19:34:56.753Z,26.15
2022-12-16T19:37:46.705Z,25.38
2022-12-16T19:40:33.700Z,26.17
2022-12-16T19:43:20.759Z,25.65
2022-12-16T19:46:15.775Z,25.65
2022-12-16T19:49:02.867Z,22.63
2022-12-16T19:51:49.845Z,26.08
2022-12-16T19:54:36.836Z,27.13
2022-12-16T19:57:24.024Z,25.85
2022-12-16T20:00:10.697Z,27.10
2022-12-16T20:02:57.860Z,24.13
2022-12-16T20:05:44.659Z,25.25
2022-12-16T20:08:33.186Z,24.60
2022-12-16T20:11:24.464Z,28.42
2022-12-16T20:14:14.148Z,31.90
2022-12-16T20:17:01.554Z,27.50
2022-12-16T20:19:48.505Z,31.73
2022-12-16T20:22:35.509Z,30.20
2022-12-16T20:25:34.698Z,31.40
2022-12-16T20:31:28.693Z,34.17
2022-12-16T20:34:16.320Z,30.08
2022-12-16T20:37:03.319Z,43.70
2022-12-16T20:39:56.707Z,56.67
2022-12-16T20:42:44.626Z,43.55
2022-12-16T20:45:32.169Z,49.80
2022-12-16T20:48:19.181Z,55.97
2022-12-16T20:51:13.231Z,62.45
2022-12-16T20:54:00.240Z,103.85
2022-12-16T20:56:47.345Z,48.03
2022-12-16T20:59:34.296Z,45.30
2022-12-16T21:02:24.389Z,58.97
2022-12-16T21:05:12.945Z,43.00
2022-12-16T21:08:00.074Z,35.38
2022-12-16T21:10:47.478Z,32.78
2022-12-16T21:13:35.918Z,29.40
2022-12-16T21:16:23.929Z,29.55
2022-12-16T21:19:11.108Z,31.90
2022-12-16T21:21:58.297Z,32.22
2022-12-16T21:24:45.283Z,32.85
2022-12-16T21:27:32.309Z,31.70
2022-12-16T21:30:19.280Z,26.85
2022-12-16T21:33:06.385Z,28.98
2022-12-16T21:35:55.883Z,29.23
2022-12-16T21:38:43.162Z,34.28
2022-12-16T21:41:30.122Z,30.05
2022-12-16T21:44:16.760Z,31.60
2022-12-16T21:47:03.746Z,31.92
2022-12-16T21:49:50.746Z,31.30
2022-12-16T21:52:38.791Z,34.60
2022-12-16T21:55:26.046Z,29.20
2022-12-16T21:58:13.040Z,30.58
2022-12-16T22:01:00.889Z,33.72
2022-12-16T22:03:53.806Z,69.57
2022-12-16T22:06:45.473Z,40.28
2022-12-16T22:09:35.353Z,35.03
2022-12-16T22:12:22.356Z,32.55
2022-12-16T22:15:09.370Z,30.38
2022-12-16T22:17:58.587Z,30.85
2022-12-16T22:20:46.222Z,32.75
2022-12-16T22:23:33.217Z,31.80
2022-12-16T22:26:20.927Z,32.05
2022-12-16T22:29:07.984Z,30.83
2022-12-16T22:31:55.057Z,33.97
2022-12-16T22:34:43.464Z,34.03
2022-12-16T22:37:30.450Z,33.28
2022-12-16T22:40:17.634Z,34.53
2022-12-16T22:43:04.585Z,34.05
2022-12-16T22:45:51.832Z,35.17
2022-12-16T22:48:38.889Z,34.17
2022-12-16T22:51:30.280Z,32.60
2022-12-16T22:54:17.245Z,32.28
2022-12-16T22:57:04.261Z,33.40
2022-12-16T22:59:51.773Z,31.75
2022-12-16T23:02:38.832Z,33.38
2022-12-16T23:05:27.918Z,36.53
2022-12-16T23:08:15.178Z,33.17
2022-12-16T23:11:02.796Z,29.35
2022-12-16T23:13:49.761Z,30.85
2022-12-16T23:16:36.834Z,32.28
2022-12-16T23:19:24.073Z,32.78
2022-12-16T23:22:11.032Z,32.83
2022-12-16T23:24:58.049Z,28.70
2022-12-16T23:27:45.085Z,32.73
2022-12-16T23:30:32.194Z,28.15
2022-12-16T23:33:19.798Z,33.30
2022-12-16T23:36:06.809Z,33.67
2022-12-16T23:38:53.885Z,32.70
2022-12-16T23:41:43.344Z,33.33
2022-12-16T23:44:30.306Z,34.03
2022-12-16T23:47:17.310Z,34.63
2022-12-16T23:50:04.261Z,35.28
2022-12-16T23:52:51.257Z,33.90
2022-12-16T23:55:38.933Z,31.85
2022-12-16T23:58:26.200Z,31.95
